createdAt,value
2022-11-05T00:02:56.549Z,12.80
2022-11-05T00:06:00.908Z,12.80
2022-11-05T00:09:04.733Z,12.80
2022-11-05T00:12:09.212Z,12.90
2022-11-05T00:15:13.217Z,13.00
2022-11-05T00:17:58.715Z,12.90
2022-11-05T00:20:44.379Z,13.00
2022-11-05T00:23:48.781Z,13.10
2022-11-05T00:26:34.195Z,13.10
2022-11-05T00:29:19.714Z,13.10
2022-11-05T00:32:07.918Z,13.00
2022-11-05T00:34:53.560Z,13.00
2022-11-05T00:37:39.642Z,12.90
2022-11-05T00:40:25.273Z,13.00
2022-11-05T00:43:29.883Z,13.10
2022-11-05T00:46:16.876Z,13.00
2022-11-05T00:49:21.135Z,13.00
2022-11-05T00:52:25.099Z,12.90
2022-11-05T00:55:10.583Z,12.80
2022-11-05T00:57:57.580Z,12.80
2022-11-05T01:00:45.623Z,12.90
2022-11-05T01:03:33.599Z,12.70
2022-11-05T01:06:19.358Z,12.90
2022-11-05T01:09:05.118Z,13.00
2022-11-05T01:11:51.362Z,12.90
2022-11-05T01:14:37.035Z,12.90
2022-11-05T01:17:22.587Z,12.90
2022-11-05T01:20:08.620Z,12.90
2022-11-05T01:22:54.434Z,12.80
2022-11-05T01:25:42.544Z,12.70
2022-11-05T01:28:28.456Z,12.70
2022-11-05T01:31:13.906Z,12.70
2022-11-05T01:34:00.926Z,12.70
2022-11-05T01:36:46.753Z,12.80
2022-11-05T01:39:32.514Z,12.80
2022-11-05T01:42:25.492Z,12.90
2022-11-05T01:45:28.022Z,13.10
2022-11-05T01:48:18.280Z,13.10
2022-11-05T01:51:06.750Z,13.20
2022-11-05T01:54:12.619Z,13.10
2022-11-05T01:57:06.404Z,13.20
2022-11-05T01:59:56.443Z,13.20
2022-11-05T02:02:42.524Z,13.10
2022-11-05T02:05:28.977Z,13.00
2022-11-05T02:08:27.420Z,12.90
2022-11-05T02:11:17.258Z,12.80
2022-11-05T02:14:03.444Z,12.80
2022-11-05T02:17:24.879Z,12.60
2022-11-05T02:20:36.232Z,12.70
2022-11-05T02:23:37.008Z,12.70
2022-11-05T02:26:49.937Z,12.60
2022-11-05T02:29:41.389Z,12.60
2022-11-05T02:32:40.299Z,12.50
2022-11-05T02:35:40.926Z,12.50
2022-11-05T02:38:41.316Z,12.50
2022-11-05T02:41:49.096Z,12.50
2022-11-05T02:44:43.365Z,12.50
2022-11-05T02:47:47.320Z,12.30
2022-11-05T02:51:00.170Z,12.40
2022-11-05T02:53:56.782Z,12.20
2022-11-05T02:56:47.133Z,12.10
2022-11-05T02:59:33.724Z,12.00
2022-11-05T03:02:19.711Z,12.00
2022-11-05T03:05:05.809Z,12.00
2022-11-05T03:08:01.193Z,12.00
2022-11-05T03:10:57.999Z,12.00
2022-11-05T03:14:21.840Z,12.20
2022-11-05T03:17:28.114Z,12.30
2022-11-05T03:20:34.958Z,12.10
2022-11-05T03:23:46.955Z,12.10
2022-11-05T03:26:38.041Z,12.10
2022-11-05T03:29:29.009Z,12.00
2022-11-05T03:32:17.378Z,12.00
2022-11-05T03:35:14.167Z,11.90
2022-11-05T03:38:06.847Z,11.90
2022-11-05T03:40:55.302Z,11.80
2022-11-05T03:43:46.895Z,11.70
2022-11-05T03:46:49.874Z,11.50
2022-11-05T03:49:53.837Z,11.60
2022-11-05T03:52:48.320Z,11.70
2022-11-05T03:55:41.155Z,11.70
2022-11-05T03:58:28.593Z,11.60
2022-11-05T04:01:15.038Z,11.50
2022-11-05T04:04:00.506Z,11.50
2022-11-05T04:07:04.564Z,11.40
2022-11-05T04:10:08.510Z,11.30
2022-11-05T04:13:12.675Z,11.30
2022-11-05T04:16:16.690Z,11.30
2022-11-05T04:19:02.274Z,11.30
2022-11-05T04:22:06.571Z,11.20
2022-11-05T04:24:52.232Z,11.20
2022-11-05T04:27:37.618Z,11.10
2022-11-05T04:30:23.315Z,11.00
2022-11-05T04:33:12.895Z,11.10
2022-11-05T04:36:00.464Z,11.20
2022-11-05T04:38:46.118Z,11.00
2022-11-05T04:41:32.785Z,11.00
2022-11-05T04:44:18.216Z,11.10
2022-11-05T04:47:03.848Z,11.20
2022-11-05T04:49:49.365Z,11.00
2022-11-05T04:52:34.857Z,10.90
2022-11-05T04:55:20.376Z,10.90
2022-11-05T04:58:06.249Z,10.90
2022-11-05T05:00:52.117Z,10.80
2022-11-05T05:03:37.600Z,10.70
2022-11-05T05:06:25.291Z,10.70
2022-11-05T05:09:12.463Z,10.60
2022-11-05T05:11:57.986Z,10.60
2022-11-05T05:14:43.595Z,10.50
2022-11-05T05:17:29.376Z,10.40
2022-11-05T05:20:33.274Z,10.20
2022-11-05T05:23:20.168Z,10.50
2022-11-05T05:26:05.836Z,10.50
2022-11-05T05:28:53.605Z,10.60
2022-11-05T05:31:39.699Z,10.60
2022-11-05T05:34:25.240Z,10.60
2022-11-05T05:37:10.766Z,10.60
2022-11-05T05:39:56.255Z,10.70
2022-11-05T05:42:43.418Z,10.60
2022-11-05T05:45:29.059Z,10.60
2022-11-05T05:48:14.346Z,10.70
2022-11-05T05:51:02.074Z,10.60
2022-11-05T05:53:47.783Z,10.60
2022-11-05T05:56:33.371Z,10.70
2022-11-05T05:59:19.071Z,10.70
2022-11-05T06:02:05.081Z,11.00
2022-11-05T06:04:50.524Z,10.60
2022-11-05T06:07:37.476Z,10.50
2022-11-05T06:10:24.221Z,10.10
2022-11-05T06:13:09.911Z,10.30
2022-11-05T06:16:11.708Z,10.40
2022-11-05T06:18:57.152Z,10.50
2022-11-05T06:21:42.881Z,10.60
2022-11-05T06:24:28.723Z,10.80
2022-11-05T06:27:14.252Z,10.60
2022-11-05T06:29:59.726Z,10.50
2022-11-05T06:32:45.267Z,10.60
2022-11-05T06:35:30.955Z,10.70
2022-11-05T06:38:16.731Z,10.80
2022-11-05T06:41:08.872Z,10.90
2022-11-05T06:43:55.964Z,10.90
2022-11-05T06:46:47.223Z,10.90
2022-11-05T06:49:34.100Z,11.00
2022-11-05T06:52:20.771Z,11.00
2022-11-05T06:55:06.437Z,11.00
2022-11-05T06:57:52.675Z,11.00
2022-11-05T07:00:38.549Z,10.80
2022-11-05T07:03:24.116Z,10.70
2022-11-05T07:06:09.443Z,10.80
2022-11-05T07:08:54.978Z,11.10
2022-11-05T07:11:40.560Z,12.10
2022-11-05T07:14:26.372Z,13.10
2022-11-05T07:17:11.975Z,13.70
2022-11-05T07:19:57.655Z,14.30
2022-11-05T07:22:43.496Z,14.90
2022-11-05T07:25:30.728Z,15.50
2022-11-05T07:28:16.319Z,16.10
2022-11-05T07:31:02.164Z,16.30
2022-11-05T07:33:47.545Z,16.90
2022-11-05T07:36:33.265Z,17.40
2022-11-05T07:39:18.913Z,17.90
2022-11-05T07:42:04.723Z,18.20
2022-11-05T07:44:52.616Z,18.80
2022-11-05T07:47:48.891Z,19.30
2022-11-05T07:50:36.362Z,20.50
2022-11-05T07:53:21.854Z,20.80
2022-11-05T07:56:08.562Z,21.20
2022-11-05T07:58:54.086Z,21.50
2022-11-05T08:01:39.824Z,22.30
2022-11-05T08:04:25.707Z,22.80
2022-11-05T08:07:11.373Z,22.50
2022-11-05T08:09:56.977Z,19.80
2022-11-05T08:12:42.485Z,20.10
2022-11-05T08:15:28.548Z,18.10
2022-11-05T08:18:17.012Z,18.90
2022-11-05T08:21:04.954Z,20.40
2022-11-05T08:23:50.686Z,20.20
2022-11-05T08:26:36.167Z,21.20
2022-11-05T08:29:21.843Z,22.60
2022-11-05T08:32:07.244Z,21.50
2022-11-05T08:34:53.063Z,19.30
2022-11-05T08:37:38.365Z,21.20
2022-11-05T08:40:24.645Z,18.10
2022-11-05T08:43:12.962Z,19.30
2022-11-05T08:46:01.323Z,20.60
2022-11-05T08:48:47.849Z,19.90
2022-11-05T08:51:33.610Z,21.90
2022-11-05T08:54:19.008Z,21.10
2022-11-05T08:57:05.976Z,20.90
2022-11-05T08:59:51.641Z,20.20
2022-11-05T09:02:37.542Z,19.70
2022-11-05T09:05:23.329Z,20.70
2022-11-05T09:08:12.640Z,20.70
2022-11-05T09:10:58.764Z,19.70
2022-11-05T09:13:44.423Z,19.90
2022-11-05T09:16:32.561Z,21.50
2022-11-05T09:19:18.303Z,21.10
2022-11-05T09:22:03.910Z,21.10
2022-11-05T09:24:49.423Z,19.70
2022-11-05T09:27:35.124Z,20.50
2022-11-05T09:30:21.260Z,22.60
2022-11-05T09:33:06.562Z,24.20
2022-11-05T09:35:53.581Z,24.90
2022-11-05T09:38:38.959Z,25.20
2022-11-05T09:41:31.233Z,25.40
2022-11-05T09:44:38.553Z,25.30
2022-11-05T09:47:36.858Z,24.10
2022-11-05T09:50:46.565Z,24.20
2022-11-05T09:53:32.306Z,23.50
2022-11-05T09:56:29.507Z,22.60
2022-11-05T09:59:33.262Z,21.50
2022-11-05T10:02:34.766Z,19.60
2022-11-05T10:05:22.389Z,18.00
2022-11-05T10:08:17.199Z,17.10
2022-11-05T10:11:20.794Z,16.60
2022-11-05T10:14:18.436Z,16.60
2022-11-05T10:17:18.221Z,16.30
2022-11-05T10:20:32.273Z,16.70
2022-11-05T10:23:22.376Z,16.60
2022-11-05T10:26:13.518Z,16.50
2022-11-05T10:28:59.882Z,16.30
2022-11-05T10:31:46.526Z,16.30
2022-11-05T10:34:34.991Z,16.60
2022-11-05T10:37:23.550Z,16.60
2022-11-05T10:40:17.917Z,16.50
2022-11-05T10:43:12.189Z,16.00
2022-11-05T10:46:15.137Z,15.90
2022-11-05T10:49:00.461Z,16.50
2022-11-05T10:51:52.530Z,16.70
2022-11-05T10:54:39.348Z,16.90
2022-11-05T10:57:29.851Z,16.90
2022-11-05T11:00:15.542Z,16.60
2022-11-05T11:03:04.082Z,16.60
2022-11-05T11:05:49.469Z,16.70
2022-11-05T11:08:36.803Z,16.70
2022-11-05T11:11:42.198Z,17.00
2022-11-05T11:14:29.475Z,16.90
2022-11-05T11:17:25.190Z,16.80
2022-11-05T11:20:16.473Z,16.90
2022-11-05T11:23:13.955Z,17.00
2022-11-05T11:26:04.237Z,17.20
2022-11-05T11:29:01.133Z,17.40
2022-11-05T11:31:47.041Z,17.10
2022-11-05T11:34:41.782Z,17.10
2022-11-05T11:37:30.692Z,17.20
2022-11-05T11:40:24.357Z,17.20
2022-11-05T11:43:28.260Z,17.10
2022-11-05T11:46:18.334Z,17.10
2022-11-05T11:49:06.009Z,17.40
2022-11-05T11:51:59.659Z,17.30
2022-11-05T11:54:45.436Z,17.40
2022-11-05T11:57:31.492Z,17.40
2022-11-05T12:00:18.529Z,17.20
2022-11-05T12:03:23.105Z,17.20
2022-11-05T12:06:23.384Z,17.20
2022-11-05T12:09:51.194Z,17.40
2022-11-05T12:12:39.670Z,17.30
2022-11-05T12:15:53.610Z,17.30
2022-11-05T12:19:17.560Z,17.50
2022-11-05T12:22:29.143Z,17.30
2022-11-05T12:25:27.868Z,17.40
2022-11-05T12:28:31.844Z,17.60
2022-11-05T12:31:41.276Z,17.60
2022-11-05T12:35:00.567Z,17.80
2022-11-05T12:38:27.452Z,17.70
2022-11-05T12:41:34.365Z,17.80
2022-11-05T12:44:48.898Z,17.70
2022-11-05T12:47:49.551Z,17.60
2022-11-05T12:50:44.673Z,17.90
2022-11-05T12:53:48.649Z,17.90
2022-11-05T12:56:56.990Z,17.90
2022-11-05T13:00:04.166Z,17.60
2022-11-05T13:03:08.125Z,17.50
2022-11-05T13:06:05.611Z,17.80
2022-11-05T13:09:25.803Z,18.00
2022-11-05T13:12:14.734Z,18.10
2022-11-05T13:15:07.857Z,18.10
2022-11-05T13:18:04.698Z,18.20
2022-11-05T13:20:53.436Z,18.10
2022-11-05T13:23:55.959Z,18.00
2022-11-05T13:27:29.216Z,18.10
2022-11-05T13:30:34.219Z,18.20
2022-11-05T13:33:26.493Z,18.30
2022-11-05T13:36:44.716Z,18.20
2022-11-05T13:39:42.633Z,18.20
2022-11-05T13:43:03.590Z,18.20
2022-11-05T13:46:09.870Z,18.00
2022-11-05T13:49:06.680Z,18.20
2022-11-05T13:52:29.141Z,18.10
2022-11-05T13:55:48.990Z,18.30
2022-11-05T13:58:38.017Z,18.00
2022-11-05T14:01:38.850Z,18.00
2022-11-05T14:04:45.207Z,18.20
2022-11-05T14:07:45.358Z,18.30
2022-11-05T14:10:39.745Z,18.40
2022-11-05T14:13:38.482Z,18.40
2022-11-05T14:16:26.497Z,18.40
2022-11-05T14:19:18.091Z,18.10
2022-11-05T14:22:32.853Z,18.10
2022-11-05T14:25:18.511Z,18.40
2022-11-05T14:28:36.452Z,18.30
2022-11-05T14:31:54.350Z,18.20
2022-11-05T14:34:55.109Z,18.40
2022-11-05T14:37:50.407Z,18.40
2022-11-05T14:40:42.461Z,18.50
2022-11-05T14:43:34.261Z,18.50
2022-11-05T14:46:20.466Z,18.40
2022-11-05T14:49:09.661Z,18.50
2022-11-05T14:51:58.072Z,18.50
2022-11-05T14:54:56.313Z,18.50
2022-11-05T14:58:01.153Z,18.50
2022-11-05T15:00:48.072Z,18.20
2022-11-05T15:03:46.196Z,18.00
2022-11-05T15:06:35.345Z,17.80
2022-11-05T15:09:29.274Z,18.00
2022-11-05T15:12:33.149Z,18.20
2022-11-05T15:15:31.808Z,18.20
2022-11-05T15:18:30.440Z,17.90
2022-11-05T15:21:18.632Z,17.60
2022-11-05T15:24:04.820Z,16.80
2022-11-05T15:27:08.470Z,17.50
2022-11-05T15:29:54.269Z,17.70
2022-11-05T15:32:40.214Z,18.30
2022-11-05T15:35:28.592Z,17.40
2022-11-05T15:38:34.115Z,17.40
2022-11-05T15:41:34.652Z,17.20
2022-11-05T15:44:31.963Z,17.20
2022-11-05T15:47:28.385Z,17.10
2022-11-05T15:50:15.739Z,17.50
2022-11-05T15:53:20.734Z,17.50
2022-11-05T15:56:13.697Z,17.40
2022-11-05T15:59:15.069Z,17.20
2022-11-05T16:02:23.623Z,17.10
2022-11-05T16:05:14.124Z,16.90
2022-11-05T16:08:00.982Z,17.30
2022-11-05T16:10:50.230Z,17.50
2022-11-05T16:13:36.737Z,17.40
2022-11-05T16:16:33.383Z,17.30
2022-11-05T16:19:41.272Z,17.20
2022-11-05T16:22:45.750Z,17.20
2022-11-05T16:25:43.047Z,17.10
2022-11-05T16:28:30.205Z,17.10
2022-11-05T16:31:21.928Z,17.00
2022-11-05T16:34:17.525Z,16.80
2022-11-05T16:37:05.644Z,16.60
2022-11-05T16:39:51.703Z,16.30
2022-11-05T16:42:39.834Z,16.50
2022-11-05T16:45:26.089Z,16.40
2022-11-05T16:48:13.528Z,16.40
2022-11-05T16:50:59.645Z,16.40
2022-11-05T16:53:47.176Z,16.30
2022-11-05T16:56:33.558Z,16.20
2022-11-05T16:59:19.084Z,16.00
2022-11-05T17:02:05.070Z,16.00
2022-11-05T17:04:51.923Z,15.90
2022-11-05T17:07:41.328Z,15.80
2022-11-05T17:10:27.552Z,15.70
2022-11-05T17:13:18.124Z,15.50
2022-11-05T17:16:03.815Z,15.10
2022-11-05T17:18:49.433Z,15.10
2022-11-05T17:21:36.669Z,14.50
2022-11-05T17:24:23.218Z,14.60
2022-11-05T17:27:08.843Z,14.60
2022-11-05T17:29:54.371Z,14.60
2022-11-05T17:32:39.906Z,14.60
2022-11-05T17:35:25.583Z,14.50
2022-11-05T17:38:12.086Z,14.40
2022-11-05T17:41:00.669Z,14.40
2022-11-05T17:43:46.729Z,14.20
2022-11-05T17:46:32.682Z,14.00
2022-11-05T17:49:18.204Z,14.10
2022-11-05T17:52:03.759Z,14.10
2022-11-05T17:54:49.793Z,14.00
2022-11-05T17:58:23.617Z,13.90
2022-11-05T18:01:29.883Z,13.90
2022-11-05T18:04:15.561Z,13.80
2022-11-05T18:07:01.181Z,13.70
2022-11-05T18:09:46.717Z,13.70
2022-11-05T18:12:32.527Z,13.60
2022-11-05T18:15:18.580Z,13.70
2022-11-05T18:18:04.480Z,13.60
2022-11-05T18:20:50.764Z,13.40
2022-11-05T18:23:36.741Z,13.20
2022-11-05T18:26:22.429Z,13.20
2022-11-05T18:29:08.486Z,13.10
2022-11-05T18:31:53.912Z,13.10
2022-11-05T18:34:39.479Z,13.00
2022-11-05T18:37:25.577Z,13.00
2022-11-05T18:40:11.521Z,12.90
2022-11-05T18:42:57.070Z,12.90
2022-11-05T18:45:42.511Z,12.90
2022-11-05T18:48:28.014Z,12.90
2022-11-05T18:51:15.964Z,12.90
2022-11-05T18:54:01.798Z,12.80
2022-11-05T18:56:47.627Z,12.80
2022-11-05T18:59:39.048Z,12.70
2022-11-05T19:02:25.386Z,12.60
2022-11-05T19:08:16.484Z,12.70
2022-11-05T19:11:09.240Z,12.70
2022-11-05T19:13:55.009Z,12.60
2022-11-05T19:16:40.579Z,12.60
2022-11-05T19:19:26.561Z,12.50
2022-11-05T19:22:12.390Z,12.50
2022-11-05T19:24:57.859Z,12.50
2022-11-05T19:27:43.712Z,12.40
2022-11-05T19:30:29.610Z,12.30
2022-11-05T19:33:15.095Z,12.30
2022-11-05T19:36:05.889Z,12.30
2022-11-05T19:38:57.583Z,12.40
2022-11-05T19:41:43.356Z,12.40
2022-11-05T19:44:29.006Z,12.50
2022-11-05T19:47:14.719Z,12.50
2022-11-05T19:50:00.273Z,12.40
2022-11-05T19:52:45.832Z,12.20
2022-11-05T19:55:31.274Z,12.20
2022-11-05T19:58:16.771Z,12.40
2022-11-05T20:01:02.846Z,12.60
2022-11-05T20:03:48.308Z,12.40
2022-11-05T20:06:38.895Z,12.50
2022-11-05T20:09:24.616Z,12.50
2022-11-05T20:12:10.297Z,12.20
2022-11-05T20:14:55.914Z,11.90
2022-11-05T20:17:41.578Z,12.00
2022-11-05T20:20:26.807Z,12.10
2022-11-05T20:23:13.063Z,12.10
2022-11-05T20:25:59.516Z,12.30
2022-11-05T20:28:45.603Z,12.40
2022-11-05T20:31:31.774Z,12.50
2022-11-05T20:34:17.340Z,12.40
2022-11-05T20:37:03.024Z,12.20
2022-11-05T20:39:48.770Z,12.20
2022-11-05T20:42:37.072Z,12.10
2022-11-05T20:45:23.000Z,11.90
2022-11-05T20:48:09.242Z,11.70
2022-11-05T20:50:54.964Z,11.90
2022-11-05T20:53:41.223Z,12.00
2022-11-05T20:56:30.112Z,12.60
2022-11-05T20:59:15.697Z,12.10
2022-11-05T21:02:01.636Z,12.10
2022-11-05T21:04:47.687Z,12.00
2022-11-05T21:07:34.076Z,11.90
2022-11-05T21:10:19.930Z,11.90
2022-11-05T21:13:05.279Z,11.80
2022-11-05T21:15:54.034Z,11.80
2022-11-05T21:18:40.506Z,11.90
2022-11-05T21:21:26.011Z,11.90
2022-11-05T21:24:11.638Z,11.80
2022-11-05T21:26:57.595Z,11.90
2022-11-05T21:29:43.191Z,11.90
2022-11-05T21:32:28.875Z,11.80
2022-11-05T21:35:14.504Z,11.80
2022-11-05T21:38:00.642Z,11.90
2022-11-05T21:40:46.680Z,11.90
2022-11-05T21:43:35.093Z,11.90
2022-11-05T21:46:21.360Z,11.70
2022-11-05T21:49:06.656Z,11.60
2022-11-05T21:52:11.113Z,11.50
2022-11-05T21:55:15.479Z,11.60
2022-11-05T21:58:29.200Z,11.40
2022-11-05T22:01:15.088Z,11.20
2022-11-05T22:04:03.312Z,11.10
2022-11-05T22:06:49.239Z,11.10
2022-11-05T22:09:35.057Z,11.10
2022-11-05T22:12:21.283Z,11.10
2022-11-05T22:15:07.458Z,11.10
2022-11-05T22:17:53.040Z,11.10
2022-11-05T22:20:39.806Z,11.20
2022-11-05T22:23:25.597Z,11.30
2022-11-05T22:26:11.430Z,11.10
2022-11-05T22:28:57.410Z,11.10
2022-11-05T22:31:43.113Z,11.20
2022-11-05T22:34:28.739Z,11.30
2022-11-05T22:37:14.280Z,11.30
2022-11-05T22:39:59.786Z,11.20
2022-11-05T22:42:45.595Z,11.20
2022-11-05T22:45:31.029Z,11.20
2022-11-05T22:48:18.429Z,11.30
2022-11-05T22:51:05.998Z,11.30
2022-11-05T22:53:51.465Z,11.30
2022-11-05T22:56:39.935Z,11.30
2022-11-05T22:59:25.818Z,11.20
2022-11-05T23:02:11.520Z,11.20
2022-11-05T23:04:57.540Z,11.20
2022-11-05T23:08:01.574Z,11.20
2022-11-05T23:11:05.586Z,11.20
2022-11-05T23:13:51.020Z,11.20
2022-11-05T23:16:56.032Z,11.10
2022-11-05T23:20:02.742Z,11.10
2022-11-05T23:23:06.637Z,12.30
2022-11-05T23:25:56.784Z,11.10
2022-11-05T23:28:42.695Z,11.10
2022-11-05T23:31:46.494Z,11.20
2022-11-05T23:34:32.418Z,11.10
2022-11-05T23:37:37.546Z,11.10
2022-11-05T23:40:29.645Z,11.10
2022-11-05T23:43:33.353Z,11.10
2022-11-05T23:46:37.334Z,11.10
2022-11-05T23:49:23.053Z,11.20
2022-11-05T23:52:08.515Z,11.20
2022-11-05T23:54:54.371Z,11.20
2022-11-05T23:57:40.844Z,9.50
